Time;durP1;ratioP1;P1;durP2;ratioP2;P2;SDS_P1;SDS_P2;PMS_P1;PMS_P2;Temp;Humidity;BMP_temperature;BMP_pressure;BME280_temperature;BME280_humidity;BME280_pressure;Samples;Min_cycle;Max_cycle;Signal;HPM_P1;HPM_P2
2021/12/30 00:01:14;;;;;;;0.00;0.00;;;;;;;12.04;100.00;100162.50;5063428;28;20470;-54
2021/12/30 00:03:40;;;;;;;0.15;0.00;;;;;;;12.03;100.00;100156.38;5066727;28;20032;-53
2021/12/30 00:06:07;;;;;;;0.25;0.00;;;;;;;12.00;100.00;100160.28;5053289;28;20428;-53
2021/12/30 00:08:33;;;;;;;0.55;0.00;;;;;;;12.02;100.00;100151.25;5064788;28;20033;-54
2021/12/30 00:10:59;;;;;;;0.28;0.20;;;;;;;12.07;100.00;100151.47;5064196;28;20464;-52
2021/12/30 00:13:24;;;;;;;0.20;0.00;;;;;;;12.11;100.00;100147.38;5060101;28;20122;-53
2021/12/30 00:15:50;;;;;;;0.05;0.00;;;;;;;12.11;100.00;100152.69;5064856;28;20170;-54
2021/12/30 00:18:16;;;;;;;0.32;0.00;;;;;;;12.13;100.00;100150.63;5065102;28;20466;-54
2021/12/30 00:20:41;;;;;;;0.57;0.25;;;;;;;12.15;100.00;100154.69;5060997;28;20029;-54
2021/12/30 00:23:08;;;;;;;0.00;0.00;;;;;;;12.14;100.00;100142.44;5061771;28;20044;-52
2021/12/30 00:25:40;;;;;;;0.17;0.00;;;;;;;12.13;100.00;100138.16;5059603;28;20528;-50
2021/12/30 00:28:07;;;;;;;0.00;0.00;;;;;;;12.10;100.00;100140.41;5062638;28;20033;-53
2021/12/30 00:30:33;;;;;;;0.75;0.52;;;;;;;12.13;100.00;100143.47;5061486;28;20029;-54
2021/12/30 00:32:59;;;;;;;1.35;0.17;;;;;;;12.13;100.00;100137.31;5063891;28;20027;-52
2021/12/30 00:35:24;;;;;;;0.32;0.00;;;;;;;12.11;100.00;100142.06;5065558;28;20040;-54
2021/12/30 00:37:50;;;;;;;0.00;0.00;;;;;;;12.10;100.00;100157.16;5059462;28;20041;-54
2021/12/30 00:40:15;;;;;;;0.00;0.00;;;;;;;12.18;100.00;100170.25;5056874;28;20060;-52
2021/12/30 00:42:40;;;;;;;0.00;0.00;;;;;;;12.21;100.00;100169.81;5062436;28;20485;-54
2021/12/30 00:45:06;;;;;;;0.10;0.00;;;;;;;12.30;100.00;100157.09;5063065;28;20039;-55
2021/12/30 00:47:32;;;;;;;0.60;0.00;;;;;;;12.31;100.00;100165.91;5062199;28;20021;-52
2021/12/30 00:49:57;;;;;;;0.63;0.03;;;;;;;12.28;100.00;100158.34;5063009;28;20116;-54
2021/12/30 00:52:24;;;;;;;0.35;0.35;;;;;;;12.26;100.00;100149.75;5061584;28;20029;-51
2021/12/30 00:54:49;;;;;;;0.38;0.00;;;;;;;12.26;100.00;100169.16;5064579;28;20520;-54
2021/12/30 00:57:15;;;;;;;1.23;0.00;;;;;;;12.23;100.00;100157.13;5065557;28;20037;-52
2021/12/30 00:59:40;;;;;;;0.30;0.30;;;;;;;12.26;100.00;100161.19;5061339;28;20374;-53
2021/12/30 01:02:05;;;;;;;0.88;0.00;;;;;;;12.27;100.00;100162.84;5063807;28;20097;-55
2021/12/30 01:04:31;;;;;;;2.08;0.13;;;;;;;12.31;100.00;100168.56;5061977;28;20120;-52
2021/12/30 01:06:56;;;;;;;0.13;0.13;;;;;;;12.33;100.00;100182.47;5065083;28;20052;-52
2021/12/30 01:09:21;;;;;;;0.17;0.08;;;;;;;12.34;100.00;100174.28;5062710;28;20033;-51
2021/12/30 01:11:47;;;;;;;0.57;0.08;;;;;;;12.33;100.00;100163.84;5062347;28;20056;-50
2021/12/30 01:14:19;;;;;;;0.10;0.00;;;;;;;12.32;100.00;100186.97;5060804;28;20036;-54
2021/12/30 01:16:48;;;;;;;1.45;0.00;;;;;;;12.33;100.00;100177.94;5060254;28;20078;-54
2021/12/30 01:21:45;;;;;;;;;;;;;;;12.32;100.00;100170.19;5061339;28;20032;-53
2021/12/30 01:24:11;;;;;;;0.00;0.00;;;;;;;12.29;100.00;100174.09;5062943;28;20319;-50
2021/12/30 01:26:36;;;;;;;1.38;0.43;;;;;;;12.30;100.00;100182.88;5064093;28;20034;-54
2021/12/30 01:29:02;;;;;;;0.22;0.22;;;;;;;12.28;100.00;100179.59;5063245;28;20485;-51
2021/12/30 01:31:27;;;;;;;2.05;0.13;;;;;;;12.27;100.00;100183.31;5062979;28;20505;-50
2021/12/30 01:33:54;;;;;;;0.00;0.00;;;;;;;12.23;100.00;100182.88;5062490;28;20034;-50
2021/12/30 01:36:21;;;;;;;0.00;0.00;;;;;;;12.25;100.00;100178.19;5062739;28;20123;-52
2021/12/30 01:38:47;;;;;;;0.10;0.00;;;;;;;12.29;100.00;100182.06;5063952;28;20029;-54
2021/12/30 01:41:14;;;;;;;0.00;0.00;;;;;;;12.29;100.00;100170.59;5059340;28;20477;-52
2021/12/30 01:43:40;;;;;;;0.30;0.00;;;;;;;12.30;100.00;100190.84;5062752;28;20033;-51
2021/12/30 01:46:07;;;;;;;2.63;0.08;;;;;;;12.32;100.00;100194.94;5064294;28;20069;-52
2021/12/30 01:48:33;;;;;;;0.30;0.10;;;;;;;12.32;100.00;100192.28;5074347;28;20502;-53
2021/12/30 01:50:59;;;;;;;1.08;0.15;;;;;;;12.32;100.00;100189.63;5063146;28;20033;-55
2021/12/30 01:53:24;;;;;;;0.35;0.22;;;;;;;12.33;100.00;100199.22;5050556;28;20155;-55
2021/12/30 01:55:50;;;;;;;0.95;0.00;;;;;;;12.34;100.00;100205.34;5059904;28;20059;-54
2021/12/30 01:58:16;;;;;;;1.65;0.13;;;;;;;12.34;100.00;100200.88;5049562;28;20768;-53
2021/12/30 02:00:45;;;;;;;0.47;0.10;;;;;;;12.31;100.00;100203.91;5057789;28;20033;-58
2021/12/30 02:03:11;;;;;;;5.68;0.35;;;;;;;12.32;100.00;100200.25;5061801;28;20086;-52
2021/12/30 02:05:38;;;;;;;1.35;0.47;;;;;;;12.32;100.00;100205.56;5060763;28;20032;-54
2021/12/30 02:08:10;;;;;;;0.00;0.00;;;;;;;12.30;100.00;100212.13;5062635;28;20036;-51
2021/12/30 02:10:36;;;;;;;0.90;0.20;;;;;;;12.26;100.00;100213.56;5059382;28;20043;-52
2021/12/30 02:13:02;;;;;;;0.30;0.00;;;;;;;12.22;100.00;100208.66;5057349;28;20028;-55
2021/12/30 02:15:27;;;;;;;0.47;0.00;;;;;;;12.19;100.00;100219.72;5062198;28;20030;-53
2021/12/30 02:17:54;;;;;;;0.55;0.00;;;;;;;12.18;100.00;100218.09;5063060;28;20040;-50
2021/12/30 02:20:47;;;;;;;0.43;0.00;;;;;;;12.13;100.00;100231.19;5060433;28;20420;-50
2021/12/30 02:23:27;;;;;;;5.30;0.00;;;;;;;12.12;100.00;100229.53;5060708;28;20036;-56
2021/12/30 02:25:56;;;;;;;0.20;0.20;;;;;;;12.12;100.00;100236.69;5060780;28;20036;-54
2021/12/30 02:28:24;;;;;;;1.10;0.60;;;;;;;12.11;100.00;100235.06;5064154;28;20056;-53
2021/12/30 02:30:53;;;;;;;1.55;0.13;;;;;;;12.10;100.00;100228.91;5058128;28;20469;-55
2021/12/30 02:33:19;;;;;;;1.20;0.10;;;;;;;12.09;100.00;100226.47;5063509;28;20481;-54
2021/12/30 02:35:44;;;;;;;1.25;0.00;;;;;;;12.08;100.00;100219.50;5060781;28;20029;-54
2021/12/30 02:38:10;;;;;;;3.35;0.10;;;;;;;12.07;100.00;100225.88;5064645;28;20111;-53
2021/12/30 02:40:42;;;;;;;2.17;0.10;;;;;;;12.07;100.00;100217.91;5060723;28;20035;-53
2021/12/30 02:43:14;;;;;;;0.77;0.15;;;;;;;12.09;100.00;100226.47;5064005;28;20032;-56
2021/12/30 02:45:40;;;;;;;0.20;0.00;;;;;;;12.08;100.00;100222.19;5063504;28;20028;-56
2021/12/30 02:48:10;;;;;;;2.38;0.00;;;;;;;12.09;100.00;100215.84;5064000;28;20028;-53
2021/12/30 02:50:36;;;;;;;1.30;0.30;;;;;;;12.08;100.00;100225.66;5064165;28;20032;-55
2021/12/30 02:53:01;;;;;;;3.75;0.10;;;;;;;12.07;100.00;100234.66;5052965;28;20516;-55
2021/12/30 02:55:27;;;;;;;0.00;0.00;;;;;;;12.09;100.00;100231.78;5065179;28;20036;-53
2021/12/30 02:57:52;;;;;;;0.20;0.00;;;;;;;12.11;100.00;100229.75;5065296;28;20135;-54
2021/12/30 03:00:18;;;;;;;0.65;0.05;;;;;;;12.13;100.00;100235.66;5064012;28;20592;-54
2021/12/30 03:02:43;;;;;;;0.75;0.20;;;;;;;12.12;100.00;100242.81;5058196;28;20033;-51
2021/12/30 03:05:14;;;;;;;1.13;0.00;;;;;;;12.10;100.00;100244.84;5058187;28;20543;-52
2021/12/30 03:07:40;;;;;;;1.75;0.00;;;;;;;12.12;100.00;100239.34;5058647;28;20033;-55
2021/12/30 03:10:20;;;;;;;1.55;0.50;;;;;;;12.15;100.00;100233.63;5057845;28;20038;-51
2021/12/30 03:12:57;;;;;;;2.40;0.00;;;;;;;12.15;100.00;100239.75;5058174;28;20485;-51
2021/12/30 03:15:26;;;;;;;0.10;0.00;;;;;;;12.21;100.00;100238.94;5055653;28;20040;-49
2021/12/30 03:17:51;;;;;;;0.00;0.00;;;;;;;12.22;100.00;100250.38;5051748;28;20120;-51
2021/12/30 03:20:17;;;;;;;0.00;0.00;;;;;;;12.22;100.00;100243.22;5061983;28;20028;-53
2021/12/30 03:22:43;;;;;;;2.47;0.00;;;;;;;12.24;100.00;100248.34;5059754;28;20029;-55
2021/12/30 03:25:12;;;;;;;1.45;0.00;;;;;;;12.25;100.00;100252.63;5060231;28;20033;-54
2021/12/30 03:27:37;;;;;;;0.45;0.45;;;;;;;12.25;100.00;100254.47;5061941;28;20131;-48
2021/12/30 03:30:06;;;;;;;0.85;0.00;;;;;;;12.26;100.00;100256.09;5064880;28;20063;-52
2021/12/30 03:32:31;;;;;;;1.50;0.28;;;;;;;12.26;100.00;100261.41;5062887;28;20039;-52
2021/12/30 03:34:57;;;;;;;0.32;0.00;;;;;;;12.28;100.00;100256.69;5065044;28;20029;-48
2021/12/30 03:37:22;;;;;;;1.33;0.55;;;;;;;12.27;100.00;100255.88;5067326;28;20039;-52
2021/12/30 03:39:48;;;;;;;1.00;0.10;;;;;;;12.31;100.00;100262.41;5068157;28;20028;-54
2021/12/30 03:42:15;;;;;;;0.10;0.00;;;;;;;12.34;100.00;100256.69;5057862;28;20047;-53
2021/12/30 03:44:41;;;;;;;3.55;0.65;;;;;;;12.34;100.00;100247.88;5058620;28;20463;-52
2021/12/30 03:47:07;;;;;;;0.30;0.00;;;;;;;12.33;100.00;100255.03;5065581;28;20571;-48
2021/12/30 03:49:33;;;;;;;0.00;0.00;;;;;;;12.34;100.00;100251.38;5064218;28;20078;-50
2021/12/30 03:51:58;;;;;;;0.38;0.00;;;;;;;12.34;100.00;100267.34;5062411;28;20029;-48
2021/12/30 03:54:23;;;;;;;0.95;0.45;;;;;;;12.39;100.00;100254.22;5062542;28;20031;-51
2021/12/30 03:56:49;;;;;;;0.93;0.00;;;;;;;12.35;100.00;100268.16;5062461;28;20040;-49
2021/12/30 03:59:14;;;;;;;0.30;0.10;;;;;;;12.33;100.00;100262.22;5067690;28;20020;-49
2021/12/30 04:01:40;;;;;;;0.20;0.20;;;;;;;12.31;100.00;100265.06;5063939;28;20121;-53
2021/12/30 04:04:05;;;;;;;3.40;0.10;;;;;;;12.36;100.00;100257.28;5063177;28;20029;-49
2021/12/30 04:06:31;;;;;;;2.20;0.00;;;;;;;12.36;100.00;100253.81;5066701;28;20154;-50
2021/12/30 04:08:57;;;;;;;2.45;0.00;;;;;;;12.35;100.00;100262.81;5065474;28;20081;-54
2021/12/30 04:11:25;;;;;;;0.17;0.10;;;;;;;12.39;100.00;100250.72;5063351;28;20078;-52
2021/12/30 04:13:50;;;;;;;0.25;0.25;;;;;;;12.40;100.00;100250.53;5062376;28;20213;-52
2021/12/30 04:16:19;;;;;;;1.48;1.38;;;;;;;12.43;100.00;100257.28;5067585;28;20491;-52
2021/12/30 04:18:46;;;;;;;0.55;0.00;;;;;;;12.42;100.00;100243.19;5085988;28;20036;-52
2021/12/30 04:21:11;;;;;;;2.53;0.10;;;;;;;12.44;100.00;100251.75;5066229;28;20044;-51
2021/12/30 04:23:36;;;;;;;0.52;0.00;;;;;;;12.42;100.00;100250.34;5066864;28;20279;-49
2021/12/30 04:26:02;;;;;;;0.17;0.00;;;;;;;12.42;100.00;100253.81;5063157;28;20467;-52
2021/12/30 04:28:27;;;;;;;3.80;0.00;;;;;;;12.42;100.00;100251.16;5066202;28;20024;-51
2021/12/30 04:30:53;;;;;;;2.67;0.20;;;;;;;12.41;100.00;100235.41;5065397;28;20028;-55
2021/12/30 04:33:19;;;;;;;0.60;0.00;;;;;;;12.39;100.00;100248.06;5063862;28;20036;-54
2021/12/30 04:35:45;;;;;;;3.95;0.00;;;;;;;12.39;100.00;100251.56;5063342;28;20123;-54
2021/12/30 04:38:10;;;;;;;0.35;0.20;;;;;;;12.36;100.00;100254.63;5053890;28;20060;-54
2021/12/30 04:40:36;;;;;;;0.38;0.00;;;;;;;12.38;100.00;100257.91;5062729;28;20113;-49
2021/12/30 04:43:01;;;;;;;1.10;0.70;;;;;;;12.40;100.00;100244.41;5063664;28;20036;-53
2021/12/30 04:45:29;;;;;;;5.18;0.57;;;;;;;12.37;100.00;100258.94;5066131;28;20032;-50
2021/12/30 04:47:54;;;;;;;1.38;0.05;;;;;;;12.36;100.00;100261.78;5067113;28;20029;-53
2021/12/30 04:50:20;;;;;;;5.03;0.85;;;;;;;12.34;100.00;100267.34;5061237;28;20036;-52
2021/12/30 04:52:45;;;;;;;1.13;0.00;;;;;;;12.40;100.00;100268.34;5066811;28;20101;-53
2021/12/30 04:55:11;;;;;;;6.40;0.75;;;;;;;12.39;100.00;100280.81;5061868;28;20047;-51
2021/12/30 04:57:37;;;;;;;2.20;0.63;;;;;;;12.42;100.00;100269.75;5061148;28;20064;-49
2021/12/30 05:00:09;;;;;;;3.60;0.93;;;;;;;12.41;100.00;100276.09;5051142;28;20068;-54
2021/12/30 05:02:54;;;;;;;5.03;0.82;;;;;;;12.39;100.00;100280.81;5060727;28;20025;-56
2021/12/30 05:05:19;;;;;;;1.15;0.40;;;;;;;12.36;100.00;100285.72;5061003;28;20270;-53
2021/12/30 05:07:45;;;;;;;4.38;1.35;;;;;;;12.33;100.00;100289.59;5059734;28;20031;-53
2021/12/30 05:10:10;;;;;;;4.40;0.77;;;;;;;12.33;100.00;100299.44;5056396;28;20354;-50
2021/12/30 05:12:35;;;;;;;0.80;0.57;;;;;;;12.29;100.00;100285.75;5065375;28;20074;-49
2021/12/30 05:15:01;;;;;;;6.93;1.23;;;;;;;12.24;100.00;100293.53;5058963;28;20208;-52
2021/12/30 05:17:29;;;;;;;6.03;1.13;;;;;;;12.24;100.00;100285.56;5065147;28;20025;-48
2021/12/30 05:19:54;;;;;;;6.45;1.25;;;;;;;12.23;100.00;100274.06;5065766;28;20036;-52
2021/12/30 05:22:20;;;;;;;9.50;0.77;;;;;;;12.22;100.00;100267.13;5058901;28;20453;-52
2021/12/30 05:24:45;;;;;;;5.15;0.90;;;;;;;12.21;100.00;100268.16;5062207;28;20359;-54
2021/12/30 05:27:10;;;;;;;5.28;1.27;;;;;;;12.23;100.00;100257.31;5064194;28;20044;-53
2021/12/30 05:29:36;;;;;;;6.13;1.80;;;;;;;12.22;100.00;100266.31;5061744;28;20037;-51
2021/12/30 05:32:01;;;;;;;6.90;1.27;;;;;;;12.23;100.00;100262.63;5057266;28;20021;-50
2021/12/30 05:34:27;;;;;;;4.15;0.40;;;;;;;12.26;100.00;100274.69;5060335;28;20103;-49
2021/12/30 05:36:52;;;;;;;4.30;0.63;;;;;;;12.26;100.00;100277.34;5064587;28;20131;-51
2021/12/30 05:39:17;;;;;;;3.70;1.27;;;;;;;12.22;100.00;100284.94;5061301;28;20111;-52
2021/12/30 05:41:43;;;;;;;6.38;1.80;;;;;;;12.20;100.00;100290.44;5064305;28;20119;-51
2021/12/30 05:44:08;;;;;;;4.35;1.13;;;;;;;12.21;100.00;100304.56;5066051;28;20071;-52
2021/12/30 05:46:34;;;;;;;6.63;1.40;;;;;;;12.20;100.00;100322.34;5064626;28;20043;-54
2021/12/30 05:49:00;;;;;;;8.48;0.85;;;;;;;12.20;100.00;100332.16;5065668;28;20032;-50
2021/12/30 05:51:25;;;;;;;8.38;1.55;;;;;;;12.20;100.00;100334.81;5057879;28;20082;-52
2021/12/30 05:53:51;;;;;;;3.00;1.08;;;;;;;12.22;100.00;100343.41;5063463;28;20075;-48
2021/12/30 05:56:17;;;;;;;7.28;1.60;;;;;;;12.26;100.00;100346.47;5060891;28;20481;-49
2021/12/30 05:58:42;;;;;;;11.55;0.90;;;;;;;12.24;100.00;100357.31;5065598;28;20029;-53
2021/12/30 06:01:08;;;;;;;8.63;2.03;;;;;;;12.23;100.00;100348.50;5061958;28;20036;-49
2021/12/30 06:03:33;;;;;;;9.02;2.67;;;;;;;12.23;100.00;100331.75;5065129;28;20542;-51
2021/12/30 06:05:58;;;;;;;9.35;1.63;;;;;;;12.23;100.00;100339.72;5061421;28;20044;-55
2021/12/30 06:08:24;;;;;;;2.78;1.02;;;;;;;12.25;100.00;100343.00;5063910;28;20297;-52
2021/12/30 06:10:49;;;;;;;6.63;1.35;;;;;;;12.23;100.00;100335.22;5060783;28;20082;-49
2021/12/30 06:13:14;;;;;;;6.07;1.00;;;;;;;12.25;100.00;100337.69;5057732;28;20393;-50
2021/12/30 06:15:40;;;;;;;4.43;1.30;;;;;;;12.26;100.00;100333.16;5060332;28;20509;-51
2021/12/30 06:18:06;;;;;;;8.70;1.67;;;;;;;12.28;100.00;100329.28;5064414;28;20465;-51
2021/12/30 06:20:31;;;;;;;7.68;1.10;;;;;;;12.23;100.00;100332.56;5064187;28;20047;-49
2021/12/30 06:22:58;;;;;;;5.65;0.98;;;;;;;12.22;100.00;100343.41;5062164;28;20044;-50
2021/12/30 06:25:23;;;;;;;1.90;0.68;;;;;;;12.20;100.00;100348.09;5061410;28;20039;-49
2021/12/30 06:27:49;;;;;;;5.60;1.05;;;;;;;12.19;100.00;100357.13;5063103;28;20044;-51
2021/12/30 06:30:14;;;;;;;7.72;1.23;;;;;;;12.16;100.00;100352.22;5062258;28;20031;-53
2021/12/30 06:32:40;;;;;;;7.18;1.17;;;;;;;12.17;100.00;100351.19;5059080;28;20036;-52
2021/12/30 06:35:09;;;;;;;5.47;1.30;;;;;;;12.19;100.00;100351.81;5057770;28;20074;-49
2021/12/30 06:37:36;;;;;;;15.48;1.77;;;;;;;12.18;100.00;100340.34;5064844;28;20040;-50
2021/12/30 06:40:04;;;;;;;10.65;1.20;;;;;;;12.16;100.00;100334.41;5061788;28;20432;-50
2021/12/30 06:42:30;;;;;;;5.53;1.33;;;;;;;12.16;100.00;100349.56;5060891;28;20034;-49
2021/12/30 06:44:55;;;;;;;10.18;3.13;;;;;;;12.15;100.00;100335.44;5060391;28;20028;-49
2021/12/30 06:47:20;;;;;;;10.90;1.38;;;;;;;12.15;100.00;100348.72;5063574;28;20098;-51
2021/12/30 06:49:46;;;;;;;7.70;1.33;;;;;;;12.16;100.00;100349.56;5060557;28;20120;-50
2021/12/30 06:52:12;;;;;;;9.32;1.83;;;;;;;12.17;100.00;100348.53;5057197;28;20392;-53
2021/12/30 06:54:38;;;;;;;5.72;2.35;;;;;;;12.17;100.00;100359.16;5058485;28;20040;-48
2021/12/30 06:57:05;;;;;;;5.00;1.10;;;;;;;12.20;100.00;100340.13;5055826;28;20409;-51
2021/12/30 06:59:31;;;;;;;3.92;1.27;;;;;;;12.19;100.00;100365.09;5061693;28;20087;-48
2021/12/30 07:01:57;;;;;;;9.48;1.58;;;;;;;12.19;100.00;100351.81;5059106;28;20041;-51
2021/12/30 07:04:26;;;;;;;9.05;1.38;;;;;;;12.19;100.00;100367.75;5058115;28;20039;-49
2021/12/30 07:06:53;;;;;;;11.10;1.50;;;;;;;12.22;100.00;100354.84;5061035;28;20452;-50
2021/12/30 07:09:19;;;;;;;9.25;1.88;;;;;;;12.21;100.00;100358.53;5058069;28;20037;-52
2021/12/30 07:11:45;;;;;;;7.00;2.53;;;;;;;12.22;100.00;100362.00;5059517;28;20486;-50
2021/12/30 07:14:10;;;;;;;8.80;1.50;;;;;;;12.21;100.00;100360.38;5061815;28;20056;-47
2021/12/30 07:16:35;;;;;;;8.00;1.65;;;;;;;12.25;100.00;100358.13;5063083;28;20382;-48
2021/12/30 07:19:01;;;;;;;7.65;1.58;;;;;;;12.25;100.00;100350.16;5064737;28;20036;-51
2021/12/30 07:21:26;;;;;;;9.18;1.83;;;;;;;12.27;100.00;100364.06;5060757;28;20028;-50
2021/12/30 07:23:52;;;;;;;6.85;0.77;;;;;;;12.23;100.00;100374.28;5063467;28;20041;-53
2021/12/30 07:26:17;;;;;;;8.13;0.90;;;;;;;12.26;100.00;100367.72;5061136;28;20036;-52
2021/12/30 07:28:42;;;;;;;2.28;0.60;;;;;;;12.26;100.00;100373.84;5064696;28;20387;-53
2021/12/30 07:31:08;;;;;;;18.02;1.17;;;;;;;12.25;100.00;100369.56;5063281;28;20028;-52
2021/12/30 07:33:33;;;;;;;5.88;0.73;;;;;;;12.21;100.00;100371.03;5058976;28;20481;-50
2021/12/30 07:36:00;;;;;;;4.20;0.88;;;;;;;12.18;100.00;100380.22;5059541;28;20049;-56
2021/12/30 07:38:25;;;;;;;7.05;2.78;;;;;;;12.20;100.00;100385.31;5060033;28;20597;-49
2021/12/30 07:40:51;;;;;;;6.90;1.38;;;;;;;12.23;100.00;100393.69;5056437;28;20035;-53
2021/12/30 07:43:16;;;;;;;3.50;1.25;;;;;;;12.31;100.00;100407.81;5059807;28;20024;-47
2021/12/30 07:45:42;;;;;;;5.15;1.23;;;;;;;12.33;100.00;100405.78;5062769;28;20032;-53
2021/12/30 07:48:07;;;;;;;8.60;1.73;;;;;;;12.34;100.00;100402.09;5061589;28;20029;-51
2021/12/30 07:50:32;;;;;;;11.20;1.45;;;;;;;12.33;100.00;100398.59;5062676;28;20032;-54
2021/12/30 07:52:59;;;;;;;4.22;0.57;;;;;;;12.32;100.00;100404.97;5062534;28;20031;-52
2021/12/30 07:55:25;;;;;;;6.53;0.93;;;;;;;12.31;100.00;100427.22;5063223;28;20059;-53
2021/12/30 07:57:52;;;;;;;6.80;2.05;;;;;;;12.33;100.00;100432.34;5058458;28;20497;-48
2021/12/30 08:00:18;;;;;;;6.28;1.00;;;;;;;12.34;100.00;100434.81;5061446;28;20032;-48
2021/12/30 08:02:44;;;;;;;5.78;0.70;;;;;;;12.34;100.00;100421.53;5067343;28;20024;-51
2021/12/30 08:05:16;;;;;;;3.75;0.65;;;;;;;12.35;100.00;100427.66;5065871;28;20093;-50
2021/12/30 08:07:45;;;;;;;1.88;0.55;;;;;;;12.31;100.00;100429.88;5060967;28;20032;-53
2021/12/30 08:10:13;;;;;;;6.68;1.65;;;;;;;12.32;100.00;100420.91;5065986;28;20505;-50
2021/12/30 08:12:43;;;;;;;4.43;1.40;;;;;;;12.30;100.00;100427.47;5066718;28;20028;-52
2021/12/30 08:15:10;;;;;;;5.65;0.75;;;;;;;12.26;100.00;100435.00;5063672;28;20045;-49
2021/12/30 08:17:35;;;;;;;9.32;0.90;;;;;;;12.26;100.00;100435.00;5067941;28;20078;-49
2021/12/30 08:20:03;;;;;;;6.72;0.55;;;;;;;12.21;100.00;100432.16;5063559;28;20309;-49
2021/12/30 08:22:28;;;;;;;2.50;0.40;;;;;;;12.16;100.00;100427.44;5066093;28;20220;-52
2021/12/30 08:24:54;;;;;;;1.00;0.30;;;;;;;12.16;100.00;100439.94;5058877;28;20055;-51
2021/12/30 08:27:19;;;;;;;4.97;0.80;;;;;;;12.13;100.00;100451.78;5060772;28;20037;-52
2021/12/30 08:29:45;;;;;;;7.25;1.60;;;;;;;12.14;100.00;100460.56;5066661;28;20095;-48
2021/12/30 08:32:12;;;;;;;4.50;0.38;;;;;;;12.20;100.00;100455.25;5067311;28;20068;-48
2021/12/30 08:34:39;;;;;;;2.15;0.88;;;;;;;12.27;100.00;100439.31;5057094;28;20035;-51
2021/12/30 08:37:04;;;;;;;1.92;0.40;;;;;;;12.34;100.00;100445.47;5061871;28;20044;-52
2021/12/30 08:39:30;;;;;;;5.78;0.98;;;;;;;12.42;100.00;100447.09;5067831;28;20445;-54
2021/12/30 08:41:57;;;;;;;1.75;0.30;;;;;;;12.47;100.00;100443.81;5065724;28;20028;-50
2021/12/30 08:44:23;;;;;;;4.65;0.63;;;;;;;12.48;100.00;100451.59;5067008;28;20575;-52
2021/12/30 08:46:49;;;;;;;2.25;0.38;;;;;;;12.51;100.00;100453.84;5065336;28;20040;-50
2021/12/30 08:49:14;;;;;;;4.22;1.42;;;;;;;12.50;100.00;100464.69;5066727;28;20039;-52
2021/12/30 08:51:40;;;;;;;1.48;0.13;;;;;;;12.51;100.00;100475.13;5066283;28;20044;-52
2021/12/30 08:54:05;;;;;;;2.42;0.45;;;;;;;12.52;100.00;100473.28;5058478;28;20522;-53
2021/12/30 08:56:31;;;;;;;1.92;0.75;;;;;;;12.55;100.00;100481.69;5064046;28;20036;-50
2021/12/30 08:58:56;;;;;;;4.60;0.57;;;;;;;12.56;100.00;100485.16;5061234;28;20070;-51
2021/12/30 09:01:22;;;;;;;6.63;0.82;;;;;;;12.61;100.00;100483.50;5065475;28;20033;-53
2021/12/30 09:03:47;;;;;;;7.63;0.93;;;;;;;12.65;100.00;100484.75;5063802;28;20477;-54
2021/12/30 09:06:13;;;;;;;3.42;0.57;;;;;;;12.66;100.00;100490.88;5060173;28;20647;-54
2021/12/30 09:08:38;;;;;;;4.65;0.57;;;;;;;12.66;100.00;100478.41;5063500;28;20063;-51
2021/12/30 09:11:03;;;;;;;2.92;0.63;;;;;;;12.64;100.00;100475.13;5061661;28;20024;-53
2021/12/30 09:13:29;;;;;;;7.25;0.50;;;;;;;12.64;100.00;100482.28;5049465;28;20060;-50
2021/12/30 09:15:55;;;;;;;3.45;0.20;;;;;;;12.65;100.00;100483.94;5064722;28;20090;-52
2021/12/30 09:18:21;;;;;;;7.82;1.30;;;;;;;12.69;100.00;100485.16;5061891;28;20097;-55
2021/12/30 09:20:47;;;;;;;4.43;0.82;;;;;;;12.69;100.00;100485.16;5065363;28;20499;-51
2021/12/30 09:23:14;;;;;;;4.95;0.82;;;;;;;12.69;100.00;100487.00;5065306;28;20036;-47
2021/12/30 09:25:40;;;;;;;5.53;0.68;;;;;;;12.70;100.00;100483.31;5062021;28;20035;-51
2021/12/30 09:28:07;;;;;;;8.25;1.35;;;;;;;12.74;100.00;100489.88;5063207;28;20025;-53
2021/12/30 09:30:33;;;;;;;7.40;0.75;;;;;;;12.76;100.00;100485.97;5063785;28;20584;-50
2021/12/30 09:33:00;;;;;;;10.27;1.80;;;;;;;12.80;100.00;100484.56;5063283;28;20127;-53
2021/12/30 09:35:26;;;;;;;3.08;0.75;;;;;;;12.80;100.00;100497.84;5062866;28;20397;-50
2021/12/30 09:37:52;;;;;;;4.50;0.73;;;;;;;12.80;100.00;100499.69;5057593;28;20032;-49
2021/12/30 09:40:18;;;;;;;3.80;0.80;;;;;;;12.81;100.00;100504.00;5059233;28;20032;-54
2021/12/30 09:42:47;;;;;;;5.25;0.60;;;;;;;12.82;100.00;100495.78;5063599;28;20021;-52
2021/12/30 09:45:13;;;;;;;3.72;0.85;;;;;;;12.81;100.00;100507.47;5061914;28;20051;-50
2021/12/30 09:47:48;;;;;;;5.00;1.40;;;;;;;12.82;100.00;100514.41;5060054;28;20545;-48
2021/12/30 09:50:15;;;;;;;6.20;1.17;;;;;;;12.83;100.00;100509.91;5063282;28;20032;-56
2021/12/30 09:52:41;;;;;;;4.65;1.58;;;;;;;12.81;100.00;100504.00;5065610;28;20493;-49
2021/12/30 09:55:07;;;;;;;6.85;1.17;;;;;;;12.83;100.00;100516.06;5056696;28;20033;-52
2021/12/30 09:57:33;;;;;;;7.15;0.73;;;;;;;12.82;100.00;100506.44;5063899;28;20378;-51
2021/12/30 09:59:58;;;;;;;8.65;2.03;;;;;;;12.85;100.00;100515.84;5059456;28;20520;-48
2021/12/30 10:02:24;;;;;;;5.07;1.58;;;;;;;12.87;100.00;100508.47;5063199;28;20504;-50
2021/12/30 10:05:03;;;;;;;4.03;1.20;;;;;;;12.94;100.00;100517.28;5062199;28;20035;-49
2021/12/30 10:07:28;;;;;;;6.15;1.80;;;;;;;12.91;100.00;100524.84;5064457;28;20036;-50
2021/12/30 10:10:00;;;;;;;6.70;0.90;;;;;;;12.92;100.00;100532.63;5056424;28;20113;-53
2021/12/30 10:12:36;;;;;;;6.32;0.50;;;;;;;12.95;100.00;100537.53;5062790;28;20033;-53
2021/12/30 10:15:02;;;;;;;13.93;1.38;;;;;;;12.97;100.00;100538.16;5062416;28;20063;-53
2021/12/30 10:17:29;;;;;;;6.22;1.50;;;;;;;12.99;100.00;100535.31;5062047;28;20421;-50
2021/12/30 10:20:14;;;;;;;4.75;0.52;;;;;;;12.99;100.00;100538.78;5057928;28;20036;-51
2021/12/30 10:22:39;;;;;;;8.60;0.77;;;;;;;13.00;100.00;100539.59;5062241;28;20149;-51
2021/12/30 10:25:23;;;;;;;8.95;0.85;;;;;;;12.99;100.00;100551.28;5055898;28;20040;-52
2021/12/30 10:27:49;;;;;;;10.32;1.10;;;;;;;12.99;100.00;100552.09;5059620;28;20052;-54
2021/12/30 10:30:36;;;;;;;6.72;1.33;;;;;;;13.01;100.00;100557.19;5061111;28;20062;-51
2021/12/30 10:33:25;;;;;;;4.05;0.85;;;;;;;12.99;100.00;100560.06;5062483;28;20050;-50
2021/12/30 10:35:52;;;;;;;8.55;1.23;;;;;;;12.99;100.00;100568.06;5060932;28;20084;-47
2021/12/30 10:38:17;;;;;;;4.70;0.73;;;;;;;12.99;100.00;100576.03;5059981;28;20029;-51
2021/12/30 10:40:49;;;;;;;7.25;0.82;;;;;;;12.99;100.00;100564.59;5061693;28;20111;-48
2021/12/30 10:43:45;;;;;;;5.47;0.60;;;;;;;13.01;100.00;100574.00;5063533;28;20085;-48
2021/12/30 10:46:19;;;;;;;6.63;2.00;;;;;;;12.99;100.00;100564.59;5053788;28;20036;-50
2021/12/30 10:49:09;;;;;;;7.60;1.05;;;;;;;12.99;100.00;100565.41;5063069;28;20025;-48
2021/12/30 10:51:39;;;;;;;1.90;0.35;;;;;;;12.98;100.00;100557.59;5059650;28;20047;-50
2021/12/30 10:54:13;;;;;;;6.80;2.30;;;;;;;13.00;100.00;100555.56;5062782;28;20895;-48
2021/12/30 10:56:59;;;;;;;4.22;0.95;;;;;;;13.03;100.00;100555.16;5060194;28;20078;-52
2021/12/30 10:59:24;;;;;;;5.35;1.27;;;;;;;12.98;100.00;100553.09;5062657;28;20024;-50
2021/12/30 11:01:53;;;;;;;5.07;0.68;;;;;;;12.98;100.00;100555.75;5061455;28;20037;-49
2021/12/30 11:04:20;;;;;;;2.47;0.98;;;;;;;12.98;100.00;100549.63;5063202;28;20028;-50
2021/12/30 11:06:46;;;;;;;8.65;1.35;;;;;;;12.96;100.00;100560.50;5061182;28;20082;-54
2021/12/30 11:09:20;;;;;;;2.20;0.68;;;;;;;12.97;100.00;100564.78;5059231;28;20028;-51
2021/12/30 11:12:00;;;;;;;6.10;1.10;;;;;;;12.97;100.00;100562.13;5061415;28;20377;-49
2021/12/30 11:14:31;;;;;;;3.00;0.50;;;;;;;12.99;100.00;100559.25;5059114;28;20119;-51
2021/12/30 11:17:18;;;;;;;2.97;0.75;;;;;;;13.05;100.00;100555.78;5061557;28;20055;-50
2021/12/30 11:19:47;;;;;;;1.48;0.20;;;;;;;13.04;100.00;100554.16;5058292;28;20090;-51